Time;durP1;ratioP1;P1;durP2;ratioP2;P2;SDS_P1;SDS_P2;PMS_P1;PMS_P2;Temp;Humidity;BMP_temperature;BMP_pressure;BME280_temperature;BME280_humidity;BME280_pressure;Samples;Min_cycle;Max_cycle;Signal;HPM_P1;HPM_P2
2022/02/22 00:00:38;;;;;;;30.75;7.70;;;;;;;4.03;100.00;100115.47;4949691;28;20390;-84
2022/02/22 00:03:09;;;;;;;27.60;6.82;;;;;;;4.02;100.00;100129.25;4947316;28;20058;-86
2022/02/22 00:05:38;;;;;;;20.58;4.15;;;;;;;4.02;100.00;100134.44;4948764;28;20056;-85
2022/02/22 00:08:06;;;;;;;22.80;5.82;;;;;;;4.04;100.00;100156.06;4950158;28;20050;-85
2022/02/22 00:10:32;;;;;;;27.65;4.53;;;;;;;4.03;100.00;100169.84;4937386;28;20861;-86
2022/02/22 00:12:59;;;;;;;17.85;3.78;;;;;;;4.06;100.00;100172.47;4940134;28;20055;-85
2022/02/22 00:15:26;;;;;;;11.88;2.17;;;;;;;3.92;100.00;100187.00;4935365;28;20077;-86
2022/02/22 00:17:54;;;;;;;10.63;3.45;;;;;;;3.69;100.00;100187.63;4946740;28;20134;-86
2022/02/22 00:20:21;;;;;;;7.82;1.60;;;;;;;3.51;100.00;100208.09;4935748;28;20051;-86
2022/02/22 00:22:48;;;;;;;13.75;2.20;;;;;;;3.30;100.00;100206.97;4948317;28;20046;-86
2022/02/22 00:25:14;;;;;;;9.18;2.33;;;;;;;3.14;100.00;100213.63;4935288;28;20749;-86
2022/02/22 00:27:43;;;;;;;9.45;2.17;;;;;;;3.01;100.00;100193.63;4950843;28;20074;-86
2022/02/22 00:30:11;;;;;;;6.55;1.92;;;;;;;2.97;100.00;100190.13;4934031;28;20202;-86
2022/02/22 00:32:39;;;;;;;13.65;3.67;;;;;;;3.03;100.00;100210.03;4942009;28;20137;-85
2022/02/22 00:35:11;;;;;;;12.13;3.03;;;;;;;3.07;100.00;100223.03;4937413;28;20058;-86
2022/02/22 00:37:39;;;;;;;12.95;3.83;;;;;;;3.06;100.00;100215.25;4946857;28;20046;-86
2022/02/22 00:40:07;;;;;;;16.92;2.80;;;;;;;3.05;100.00;100221.25;4951359;28;20050;-86
2022/02/22 00:42:34;;;;;;;21.85;3.85;;;;;;;3.12;100.00;100248.97;4950024;28;20525;-84
2022/02/22 00:45:01;;;;;;;15.57;3.67;;;;;;;3.18;100.00;100243.91;4949814;28;20832;-85
2022/02/22 00:47:28;;;;;;;25.35;4.00;;;;;;;3.25;100.00;100260.38;4952118;28;20051;-86
2022/02/22 00:49:55;;;;;;;16.73;3.63;;;;;;;3.31;100.00;100256.16;4935601;28;20096;-86
2022/02/22 00:52:22;;;;;;;22.42;5.05;;;;;;;3.36;100.00;100269.13;4949192;28;20134;-86
2022/02/22 00:54:49;;;;;;;29.85;4.40;;;;;;;3.42;100.00;100274.41;4952004;28;20770;-86
2022/02/22 00:57:16;;;;;;;24.85;4.10;;;;;;;3.45;100.00;100289.09;4949586;28;20633;-86
2022/02/22 00:59:42;;;;;;;23.85;3.50;;;;;;;3.47;100.00;100296.03;4935730;28;20043;-85
2022/02/22 01:02:09;;;;;;;19.42;3.90;;;;;;;3.49;100.00;100306.41;4950252;28;20838;-86
2022/02/22 01:04:36;;;;;;;18.92;4.28;;;;;;;3.51;100.00;100322.84;4927976;28;20053;-85
2022/02/22 01:07:03;;;;;;;18.23;4.15;;;;;;;3.49;100.00;100324.53;4948068;28;20042;-85
2022/02/22 01:09:29;;;;;;;21.88;3.38;;;;;;;3.49;100.00;100332.28;4930050;28;20082;-86
2022/02/22 01:11:56;;;;;;;17.45;4.28;;;;;;;3.47;100.00;100339.19;4943566;28;20047;-85
2022/02/22 01:14:23;;;;;;;19.35;3.70;;;;;;;3.44;100.00;100346.88;4947470;28;20050;-85
2022/02/22 01:16:49;;;;;;;15.50;4.13;;;;;;;3.41;100.00;100342.53;4936054;28;20054;-86
2022/02/22 01:19:16;;;;;;;23.98;4.30;;;;;;;3.43;100.00;100356.38;4949176;28;20349;-86
2022/02/22 01:21:43;;;;;;;26.30;5.05;;;;;;;3.40;100.00;100355.44;4934121;28;20053;-86
2022/02/22 01:24:10;;;;;;;21.92;4.40;;;;;;;3.39;100.00;100351.09;4949114;28;20535;-86
2022/02/22 01:26:37;;;;;;;21.25;4.30;;;;;;;3.38;100.00;100360.59;4950113;28;21412;-85
2022/02/22 01:29:04;;;;;;;46.88;6.00;;;;;;;3.38;100.00;100359.75;4933134;28;20065;-85
2022/02/22 01:31:31;;;;;;;23.23;5.13;;;;;;;3.34;100.00;100348.47;4929471;28;20066;-85
2022/02/22 01:33:57;;;;;;;19.75;4.32;;;;;;;3.34;100.00;100350.16;4947515;28;20051;-85
2022/02/22 01:36:26;;;;;;;13.18;3.80;;;;;;;3.29;100.00;100366.50;4963141;28;20066;-85
2022/02/22 01:38:53;;;;;;;19.48;4.57;;;;;;;3.26;100.00;100366.44;4945177;28;20057;-85
2022/02/22 01:41:22;;;;;;;22.75;4.05;;;;;;;3.21;100.00;100368.09;4931345;28;20050;-85
2022/02/22 01:43:49;;;;;;;19.90;4.55;;;;;;;3.16;100.00;100377.50;4935750;28;20287;-84
2022/02/22 01:46:16;;;;;;;17.73;3.38;;;;;;;3.14;100.00;100382.63;4945121;28;20201;-85
2022/02/22 01:48:43;;;;;;;13.95;4.35;;;;;;;3.13;100.00;100391.25;4948137;28;20061;-86
2022/02/22 01:51:13;;;;;;;27.20;5.18;;;;;;;3.07;100.00;100400.59;4931716;28;20051;-85
2022/02/22 01:53:39;;;;;;;16.95;3.95;;;;;;;3.01;100.00;100401.34;4946039;28;20062;-85
2022/02/22 01:56:08;;;;;;;23.90;4.32;;;;;;;3.01;100.00;100416.00;4949486;28;20053;-86
2022/02/22 01:58:35;;;;;;;27.38;4.85;;;;;;;3.06;100.00;100437.66;4931360;28;21834;-85
2022/02/22 02:01:02;;;;;;;23.77;3.38;;;;;;;3.10;99.47;100430.00;4929406;28;20055;-85
2022/02/22 02:03:28;;;;;;;25.13;6.07;;;;;;;3.14;99.64;100426.63;4932456;28;20046;-85
2022/02/22 02:05:56;;;;;;;25.08;5.10;;;;;;;3.19;99.56;100428.41;4943667;28;20062;-85
2022/02/22 02:08:23;;;;;;;27.85;4.80;;;;;;;3.26;98.64;100432.81;4930235;28;20051;-85
2022/02/22 02:10:50;;;;;;;22.50;4.72;;;;;;;3.28;98.81;100444.09;4946671;28;20046;-86
2022/02/22 02:13:19;;;;;;;22.00;3.95;;;;;;;3.33;98.66;100442.44;4924476;28;20054;-85
2022/02/22 02:15:46;;;;;;;20.60;5.10;;;;;;;3.36;97.86;100447.66;4945196;28;20039;-85
2022/02/22 02:18:12;;;;;;;18.50;3.60;;;;;;;3.38;97.51;100450.31;4939504;28;20076;-85
2022/02/22 02:20:39;;;;;;;22.15;4.40;;;;;;;3.39;97.55;100452.91;4945525;28;22951;-86
2022/02/22 02:23:06;;;;;;;22.73;5.15;;;;;;;3.38;97.62;100445.97;4929586;28;20046;-85
2022/02/22 02:25:33;;;;;;;20.17;5.05;;;;;;;3.41;96.38;100448.63;4945155;28;20054;-85
2022/02/22 02:27:59;;;;;;;22.60;4.55;;;;;;;3.43;95.96;100453.84;4931214;28;20446;-85
2022/02/22 02:30:29;;;;;;;25.55;5.60;;;;;;;3.45;94.52;100449.53;4927374;28;20512;-85
2022/02/22 02:32:56;;;;;;;26.50;5.15;;;;;;;3.47;95.53;100466.84;4920899;28;20502;-84
2022/02/22 02:35:22;;;;;;;21.70;5.35;;;;;;;3.45;95.21;100460.75;4943367;28;20191;-85
2022/02/22 02:37:49;;;;;;;14.43;4.55;;;;;;;3.44;94.52;100459.03;4939080;28;20051;-85
2022/02/22 02:40:15;;;;;;;24.02;4.00;;;;;;;3.46;95.08;100461.66;4922068;28;20064;-85
2022/02/22 02:42:44;;;;;;;18.27;3.78;;;;;;;3.45;95.26;100468.50;4936567;28;20114;-84
2022/02/22 02:45:12;;;;;;;27.98;4.28;;;;;;;3.43;95.27;100482.31;4910964;28;20055;-86
2022/02/22 02:47:39;;;;;;;16.05;4.15;;;;;;;3.40;94.85;100477.06;4912772;29;20055;-84
2022/02/22 02:50:08;;;;;;;19.20;4.22;;;;;;;3.35;94.38;100474.41;4912795;29;20142;-85
2022/02/22 02:52:35;;;;;;;18.73;3.90;;;;;;;3.29;94.73;100484.63;4939885;28;20058;-85
2022/02/22 02:55:02;;;;;;;22.50;5.20;;;;;;;3.19;94.56;100480.13;4933055;28;20075;-85
2022/02/22 02:57:30;;;;;;;12.50;3.00;;;;;;;3.08;95.12;100490.28;4930360;28;20087;-84
2022/02/22 02:59:57;;;;;;;20.50;4.63;;;;;;;2.94;95.40;100492.59;4915149;29;20377;-85
2022/02/22 03:02:24;;;;;;;19.10;3.42;;;;;;;2.81;95.97;100482.00;4927979;28;20729;-85
2022/02/22 03:04:51;;;;;;;18.15;2.40;;;;;;;2.73;96.08;100491.31;4915323;29;20073;-86
2022/02/22 03:07:17;;;;;;;14.75;4.28;;;;;;;2.75;96.11;100500.00;4925557;28;20051;-85
2022/02/22 03:09:44;;;;;;;15.45;3.22;;;;;;;2.81;94.72;100522.50;4928753;28;20047;-85
2022/02/22 03:12:10;;;;;;;21.90;3.97;;;;;;;2.86;93.63;100525.19;4916656;29;20141;-85
2022/02/22 03:14:37;;;;;;;11.15;1.90;;;;;;;2.79;93.05;100531.94;4926704;28;20139;-85
2022/02/22 03:17:04;;;;;;;8.32;2.53;;;;;;;2.67;93.99;100535.13;4928898;28;20051;-85
2022/02/22 03:19:30;;;;;;;15.15;2.90;;;;;;;2.57;95.87;100543.53;4928220;28;20068;-86
2022/02/22 03:21:57;;;;;;;10.13;1.83;;;;;;;2.48;97.13;100549.38;4930881;28;20126;-85
2022/02/22 03:24:23;;;;;;;9.60;2.25;;;;;;;2.39;98.48;100551.75;4932485;28;20175;-84
2022/02/22 03:26:50;;;;;;;9.07;1.95;;;;;;;2.32;99.93;100548.13;4913812;29;20764;-84
2022/02/22 03:29:16;;;;;;;9.77;2.20;;;;;;;2.28;100.00;100562.72;4945945;28;20173;-85
2022/02/22 03:31:43;;;;;;;14.50;3.42;;;;;;;2.28;100.00;100561.81;4967496;28;20042;-84
2022/02/22 03:34:09;;;;;;;20.25;3.33;;;;;;;2.36;100.00;100569.75;4943513;28;20047;-86
2022/02/22 03:36:36;;;;;;;12.60;2.75;;;;;;;2.40;100.00;100563.81;4951787;28;20477;-84
2022/02/22 03:39:05;;;;;;;24.17;3.45;;;;;;;2.41;100.00;100583.66;4953424;28;20178;-84
2022/02/22 03:41:32;;;;;;;11.00;2.83;;;;;;;2.34;100.00;100563.69;4931717;28;20051;-85
2022/02/22 03:43:59;;;;;;;14.43;3.30;;;;;;;2.31;100.00;100555.03;4938244;28;20058;-85
2022/02/22 03:46:26;;;;;;;26.85;3.90;;;;;;;2.31;100.00;100572.25;4949560;28;20046;-85
2022/02/22 03:48:52;;;;;;;19.02;3.65;;;;;;;2.34;99.87;100572.31;4935920;28;20054;-85
2022/02/22 03:51:19;;;;;;;13.57;4.18;;;;;;;2.36;99.84;100574.91;4947659;28;20046;-83
2022/02/22 03:53:45;;;;;;;13.15;3.72;;;;;;;2.33;100.00;100572.28;4936903;28;20063;-85
2022/02/22 03:56:12;;;;;;;13.13;3.10;;;;;;;2.26;100.00;100579.00;4936292;28;20071;-86
2022/02/22 03:58:38;;;;;;;22.25;3.63;;;;;;;2.20;100.00;100584.88;4944613;28;20043;-85
2022/02/22 04:01:06;;;;;;;16.40;4.57;;;;;;;2.16;100.00;100588.25;4934694;28;20051;-85
2022/02/22 04:03:33;;;;;;;17.35;5.10;;;;;;;2.13;100.00;100583.00;4935987;28;20057;-85
2022/02/22 04:05:59;;;;;;;21.10;5.07;;;;;;;2.12;100.00;100592.44;4933525;28;20146;-85
2022/02/22 04:08:26;;;;;;;22.83;4.40;;;;;;;2.16;100.00;100595.97;4935485;28;20050;-85
2022/02/22 04:10:53;;;;;;;25.35;5.50;;;;;;;2.18;100.00;100591.75;4948821;28;20047;-85
2022/02/22 04:13:19;;;;;;;30.83;5.68;;;;;;;2.16;100.00;100603.72;4927644;28;20061;-84
2022/02/22 04:15:46;;;;;;;20.83;4.65;;;;;;;2.11;100.00;100611.38;4947824;28;20051;-84
2022/02/22 04:18:12;;;;;;;18.60;5.30;;;;;;;2.08;100.00;100620.75;4933935;28;20047;-85
2022/02/22 04:20:39;;;;;;;22.33;5.88;;;;;;;2.09;100.00;100614.75;4931207;28;20061;-86
2022/02/22 04:23:06;;;;;;;21.13;4.05;;;;;;;2.10;100.00;100629.41;4947714;28;20126;-85
2022/02/22 04:25:32;;;;;;;27.23;5.20;;;;;;;2.10;100.00;100629.41;4932326;28;20105;-84
2022/02/22 04:27:59;;;;;;;17.05;4.38;;;;;;;2.13;100.00;100617.44;4951447;28;20062;-85
2022/02/22 04:30:26;;;;;;;18.67;4.88;;;;;;;2.07;100.00;100625.03;4950180;28;20058;-85
2022/02/22 04:32:52;;;;;;;23.73;4.40;;;;;;;2.05;100.00;100639.63;4946208;28;20061;-84
2022/02/22 04:35:19;;;;;;;21.40;4.22;;;;;;;2.06;100.00;100633.63;4932820;28;20059;-86
2022/02/22 04:37:45;;;;;;;21.73;5.55;;;;;;;2.13;100.00;100632.06;4934658;28;20051;-84
2022/02/22 04:40:12;;;;;;;21.70;4.53;;;;;;;2.17;100.00;100631.31;4949361;28;20073;-85
2022/02/22 04:42:40;;;;;;;27.67;6.63;;;;;;;2.22;100.00;100645.22;4948800;28;20053;-84
2022/02/22 04:45:07;;;;;;;12.95;4.93;;;;;;;2.26;100.00;100648.75;4951258;28;20050;-85
2022/02/22 04:47:34;;;;;;;11.93;4.22;;;;;;;2.37;100.00;100661.94;4943108;28;20078;-84
2022/02/22 04:50:01;;;;;;;17.92;4.25;;;;;;;2.51;100.00;100667.44;4935820;28;20046;-85
2022/02/22 04:52:27;;;;;;;16.70;4.15;;;;;;;2.61;100.00;100657.34;4946260;28;20170;-85
2022/02/22 04:54:54;;;;;;;27.05;6.40;;;;;;;2.76;100.00;100669.75;4948160;28;20506;-84
2022/02/22 04:57:20;;;;;;;25.73;4.80;;;;;;;2.89;100.00;100673.47;4934255;28;20046;-85
2022/02/22 04:59:47;;;;;;;19.05;5.15;;;;;;;2.93;100.00;100667.56;4947317;28;20137;-85
2022/02/22 05:02:13;;;;;;;21.35;3.88;;;;;;;2.92;100.00;100673.56;4931223;28;20051;-85
2022/02/22 05:04:40;;;;;;;15.18;2.85;;;;;;;2.89;100.00;100667.44;4946232;28;20054;-85
2022/02/22 05:07:07;;;;;;;14.80;3.70;;;;;;;2.80;100.00;100674.19;4947349;28;20453;-85
2022/02/22 05:09:33;;;;;;;8.95;2.92;;;;;;;2.78;100.00;100688.75;4931849;28;20065;-85
2022/02/22 05:12:03;;;;;;;26.02;3.72;;;;;;;2.72;100.00;100674.81;4930269;28;21269;-85
2022/02/22 05:14:30;;;;;;;22.58;4.18;;;;;;;2.64;100.00;100682.41;4945415;28;20046;-84
2022/02/22 05:16:56;;;;;;;25.75;4.68;;;;;;;2.55;100.00;100685.63;4946753;28;20038;-84
2022/02/22 05:19:23;;;;;;;27.75;5.40;;;;;;;2.48;100.00;100688.91;4945443;28;21202;-86
2022/02/22 05:21:49;;;;;;;18.77;3.88;;;;;;;2.35;100.00;100677.41;4939152;28;20043;-85
2022/02/22 05:24:16;;;;;;;29.65;5.47;;;;;;;2.25;100.00;100691.78;4929910;28;20058;-85
2022/02/22 05:26:43;;;;;;;18.90;4.10;;;;;;;2.20;100.00;100695.09;4948467;28;20047;-85
2022/02/22 05:29:10;;;;;;;23.60;4.70;;;;;;;2.13;100.00;100683.72;4926134;28;20059;-85
2022/02/22 05:31:39;;;;;;;25.38;5.03;;;;;;;2.06;100.00;100693.03;4928252;28;20421;-85
2022/02/22 05:34:05;;;;;;;22.02;4.72;;;;;;;2.02;100.00;100708.38;4944658;28;20061;-84
2022/02/22 05:36:32;;;;;;;27.58;5.40;;;;;;;1.98;100.00;100720.31;4930238;28;20053;-85
2022/02/22 05:38:59;;;;;;;20.45;5.20;;;;;;;1.96;100.00;100716.84;4940072;28;20137;-85
2022/02/22 05:41:25;;;;;;;17.73;3.90;;;;;;;1.95;100.00;100709.94;4941052;28;20039;-85
2022/02/22 05:43:55;;;;;;;19.67;4.55;;;;;;;1.96;100.00;100712.53;4944144;28;20046;-84
2022/02/22 05:46:22;;;;;;;26.50;6.97;;;;;;;1.95;100.00;100713.38;4939500;28;20065;-85
2022/02/22 05:48:48;;;;;;;24.50;4.00;;;;;;;1.93;100.00;100714.16;4929473;28;20047;-85
2022/02/22 05:51:17;;;;;;;33.67;5.80;;;;;;;1.87;100.00;100714.03;4928019;28;20718;-85
2022/02/22 05:53:44;;;;;;;28.48;4.43;;;;;;;1.83;100.00;100727.69;4930794;28;20477;-84
2022/02/22 05:56:11;;;;;;;18.92;5.25;;;;;;;1.77;100.00;100724.09;4934671;28;20053;-85
2022/02/22 05:58:38;;;;;;;22.42;5.47;;;;;;;1.72;100.00;100723.09;4929609;28;20058;-85
2022/02/22 06:01:05;;;;;;;19.40;4.55;;;;;;;1.71;100.00;100735.91;4940869;28;20484;-86
2022/02/22 06:03:31;;;;;;;29.92;6.75;;;;;;;1.65;100.00;100734.06;4930158;28;20070;-85
2022/02/22 06:05:58;;;;;;;22.33;4.72;;;;;;;1.60;100.00;100752.00;4944746;28;20496;-85
2022/02/22 06:08:26;;;;;;;29.35;5.10;;;;;;;1.61;100.00;100740.81;4940283;28;20697;-85
2022/02/22 06:10:53;;;;;;;20.98;4.45;;;;;;;1.63;100.00;100761.50;4944871;28;20357;-84
2022/02/22 06:13:23;;;;;;;19.83;5.72;;;;;;;1.61;100.00;100763.19;4946778;28;20051;-85
2022/02/22 06:15:50;;;;;;;29.88;5.05;;;;;;;1.62;100.00;100760.63;4943564;28;20047;-85
2022/02/22 06:18:17;;;;;;;24.55;5.03;;;;;;;1.62;100.00;100776.13;4958011;28;20130;-84
2022/02/22 06:20:44;;;;;;;28.45;6.13;;;;;;;1.60;100.00;100777.81;4944382;28;20047;-84
2022/02/22 06:23:14;;;;;;;25.50;5.30;;;;;;;1.60;100.00;100785.53;4932181;28;20915;-86
2022/02/22 06:25:41;;;;;;;24.25;5.63;;;;;;;1.56;100.00;100781.09;4945178;28;20055;-84
2022/02/22 06:28:08;;;;;;;30.63;6.22;;;;;;;1.58;100.00;100786.31;4927542;28;20154;-84
2022/02/22 06:30:34;;;;;;;24.30;6.70;;;;;;;1.62;100.00;100791.59;4946368;28;20686;-85
2022/02/22 06:33:01;;;;;;;30.15;5.05;;;;;;;1.63;100.00;100793.38;4927798;28;20452;-86
2022/02/22 06:35:32;;;;;;;16.98;4.22;;;;;;;1.65;100.00;100801.16;4949802;28;20132;-84
2022/02/22 06:38:03;;;;;;;27.02;6.07;;;;;;;1.73;100.00;100799.66;4944937;28;20078;-84
2022/02/22 06:40:31;;;;;;;28.33;4.45;;;;;;;1.76;100.00;100793.69;4920648;28;20579;-85
2022/02/22 06:43:01;;;;;;;20.88;4.05;;;;;;;1.73;100.00;100802.22;4925018;28;20054;-86
2022/02/22 06:45:27;;;;;;;14.43;6.00;;;;;;;1.74;100.00;100810.88;4926567;28;20444;-87
2022/02/22 06:47:54;;;;;;;16.60;5.10;;;;;;;1.78;100.00;100810.13;4939614;28;20070;-86
2022/02/22 06:50:22;;;;;;;27.73;5.75;;;;;;;1.79;100.00;100812.75;4940144;28;20046;-86
2022/02/22 06:52:49;;;;;;;23.00;4.57;;;;;;;1.84;100.00;100822.31;4924853;28;20047;-86
2022/02/22 06:55:16;;;;;;;27.75;5.32;;;;;;;1.89;100.00;100810.44;4939894;28;21501;-86
2022/02/22 06:57:47;;;;;;;13.80;4.95;;;;;;;1.93;100.00;100818.31;4921143;28;20058;-86
2022/02/22 07:00:21;;;;;;;25.88;4.70;;;;;;;1.96;100.00;100830.44;4934438;28;20063;-86
2022/02/22 07:02:49;;;;;;;18.90;4.47;;;;;;;2.01;100.00;100822.81;4934991;28;20049;-86
2022/02/22 07:05:19;;;;;;;24.20;5.75;;;;;;;2.02;100.00;100828.06;4924887;28;20042;-86
2022/02/22 07:07:46;;;;;;;29.17;5.47;;;;;;;2.09;100.00;100836.84;4922761;28;20067;-86
2022/02/22 07:10:13;;;;;;;26.65;5.97;;;;;;;2.17;100.00;100844.81;4926387;28;20051;-86
2022/02/22 07:12:39;;;;;;;18.15;3.90;;;;;;;2.30;100.00;100852.06;4958082;28;20086;-87
2022/02/22 07:15:07;;;;;;;30.05;7.18;;;;;;;2.37;100.00;100847.94;4921752;28;20058;-86
2022/02/22 07:17:52;;;;;;;24.98;6.63;;;;;;;2.37;100.00;100853.97;4943247;28;21125;-86
2022/02/22 07:20:21;;;;;;;23.25;4.72;;;;;;;2.34;100.00;100851.31;4938596;28;20039;-86
2022/02/22 07:22:49;;;;;;;20.73;5.18;;;;;;;2.31;100.00;100851.25;4923800;28;20043;-86
2022/02/22 07:25:19;;;;;;;16.88;3.95;;;;;;;2.35;100.00;100858.22;4938931;28;20495;-86
2022/02/22 07:27:46;;;;;;;24.45;6.15;;;;;;;2.39;100.00;100848.88;4939959;28;20050;-86
2022/02/22 07:30:20;;;;;;;19.92;5.03;;;;;;;2.58;100.00;100858.88;4932396;28;20415;-86
2022/02/22 07:32:48;;;;;;;21.58;5.75;;;;;;;2.97;100.00;100855.56;4929370;28;20057;-87
2022/02/22 07:35:15;;;;;;;15.15;4.10;;;;;;;3.25;99.42;100860.56;4925928;28;20058;-86
2022/02/22 07:37:44;;;;;;;18.70;3.85;;;;;;;3.33;98.10;100859.03;4948828;28;20914;-85
2022/02/22 07:40:15;;;;;;;21.45;5.40;;;;;;;3.38;97.78;100859.16;4933485;28;20276;-86
2022/02/22 07:42:42;;;;;;;19.80;4.38;;;;;;;3.34;98.29;100858.19;4930404;28;20081;-86
2022/02/22 07:45:10;;;;;;;16.80;3.83;;;;;;;3.33;98.61;100871.97;4945433;28;20086;-86
2022/02/22 07:47:36;;;;;;;17.85;4.35;;;;;;;3.28;97.90;100864.06;4948745;28;20454;-85
2022/02/22 07:50:05;;;;;;;21.80;4.93;;;;;;;3.22;98.34;100870.81;4948089;28;20086;-85
2022/02/22 07:52:33;;;;;;;17.83;5.28;;;;;;;3.10;98.94;100882.63;4947642;28;20054;-86
2022/02/22 07:55:00;;;;;;;22.55;4.63;;;;;;;3.05;99.97;100880.75;4947409;28;20067;-86
2022/02/22 07:57:27;;;;;;;22.80;5.40;;;;;;;3.06;99.46;100895.44;4934569;28;20552;-86
2022/02/22 07:59:53;;;;;;;17.13;3.83;;;;;;;3.09;99.93;100891.22;4934360;28;20498;-86
2022/02/22 08:02:20;;;;;;;15.75;4.13;;;;;;;3.11;99.90;100901.59;4947453;28;21412;-86
2022/02/22 08:04:47;;;;;;;18.35;5.53;;;;;;;3.11;99.82;100904.19;4935313;28;20323;-86
2022/02/22 08:07:14;;;;;;;15.43;4.00;;;;;;;3.14;99.46;100897.38;4951239;28;20050;-86
2022/02/22 08:09:41;;;;;;;18.55;3.88;;;;;;;3.13;99.39;100905.97;4935918;28;20719;-86
2022/02/22 08:12:09;;;;;;;16.27;6.25;;;;;;;3.10;99.54;100910.19;4937111;28;20588;-85
2022/02/22 08:14:36;;;;;;;14.80;4.50;;;;;;;3.10;99.41;100908.50;4936259;28;20051;-85
2022/02/22 08:17:03;;;;;;;23.08;4.97;;;;;;;3.13;99.50;100912.88;4949205;28;20584;-85
2022/02/22 08:19:31;;;;;;;16.25;4.82;;;;;;;3.18;99.01;100913.88;4952859;28;20075;-83
2022/02/22 08:21:58;;;;;;;18.70;3.95;;;;;;;3.27;98.43;100927.03;4945969;28;20159;-85
2022/02/22 08:24:26;;;;;;;14.55;4.05;;;;;;;3.31;98.12;100923.69;4948496;28;20069;-84
2022/02/22 08:26:56;;;;;;;21.30;4.43;;;;;;;3.38;97.88;100931.59;4947459;28;20042;-85
2022/02/22 08:29:26;;;;;;;18.73;3.80;;;;;;;3.42;98.10;100930.84;4955439;28;20050;-84
2022/02/22 08:31:53;;;;;;;12.80;4.10;;;;;;;3.52;98.03;100934.50;4944795;28;20049;-85
2022/02/22 08:34:20;;;;;;;16.90;5.05;;;;;;;3.60;97.79;100926.09;4949865;28;20051;-85
2022/02/22 08:36:47;;;;;;;21.65;6.05;;;;;;;3.71;96.52;100933.25;4963671;28;20051;-84
2022/02/22 08:39:14;;;;;;;18.00;5.20;;;;;;;3.81;95.81;100935.22;4932606;28;20518;-85
2022/02/22 08:41:42;;;;;;;16.65;5.43;;;;;;;3.87;96.05;100927.59;4950336;28;20049;-84
2022/02/22 08:44:10;;;;;;;22.20;5.45;;;;;;;3.98;95.40;100925.25;4944409;28;20047;-84
2022/02/22 08:46:37;;;;;;;22.42;4.75;;;;;;;4.05;94.83;100921.94;4950973;28;20061;-88
2022/02/22 08:49:12;;;;;;;20.33;4.78;;;;;;;4.14;94.76;100934.22;4930573;28;20050;-85
2022/02/22 08:51:39;;;;;;;26.50;5.13;;;;;;;4.20;94.65;100933.47;4934942;28;20047;-85
2022/02/22 08:54:09;;;;;;;18.38;5.88;;;;;;;4.19;94.45;100926.56;4937217;28;20058;-85
2022/02/22 08:56:36;;;;;;;15.65;4.13;;;;;;;4.19;93.71;100934.34;4947430;28;20070;-86
2022/02/22 08:59:03;;;;;;;16.90;3.60;;;;;;;4.15;94.50;100935.97;4951638;28;20047;-88
2022/02/22 09:01:30;;;;;;;25.27;4.43;;;;;;;4.15;94.81;100928.19;4933168;28;20146;-88
2022/02/22 09:03:59;;;;;;;23.00;4.72;;;;;;;4.21;92.72;100932.63;4931749;28;20141;-87
2022/02/22 09:06:26;;;;;;;21.80;4.25;;;;;;;4.28;93.83;100927.63;4934242;28;20051;-87
2022/02/22 09:08:53;;;;;;;17.10;3.42;;;;;;;4.42;93.64;100921.84;4934941;28;20061;-87
2022/02/22 09:11:20;;;;;;;18.25;4.03;;;;;;;4.61;90.99;100925.69;4947783;28;20184;-85
2022/02/22 09:13:47;;;;;;;23.25;4.20;;;;;;;4.74;89.58;100922.47;4947880;28;20058;-87
2022/02/22 09:16:14;;;;;;;23.45;4.07;;;;;;;4.84;89.17;100926.13;4929406;28;20050;-86
2022/02/22 09:18:41;;;;;;;13.60;3.53;;;;;;;4.84;88.25;100917.47;4932123;28;20078;-87
2022/02/22 09:21:09;;;;;;;25.00;3.58;;;;;;;4.80;88.90;100934.72;4944872;28;20142;-88
2022/02/22 09:23:35;;;;;;;17.63;5.93;;;;;;;4.83;87.53;100947.72;4959500;28;20055;-84
2022/02/22 09:26:02;;;;;;;17.23;3.38;;;;;;;4.80;88.02;100932.97;4935278;28;20055;-85
2022/02/22 09:28:30;;;;;;;16.70;3.80;;;;;;;4.87;87.92;100946.06;4935862;28;20054;-87
2022/02/22 09:30:56;;;;;;;28.30;6.15;;;;;;;5.01;86.87;100939.41;4947694;28;20181;-87
2022/02/22 09:33:26;;;;;;;17.00;3.45;;;;;;;5.15;86.27;100939.69;4949596;28;20674;-86
2022/02/22 09:35:52;;;;;;;19.35;4.47;;;;;;;5.28;84.94;100928.66;4936491;28;20102;-87
2022/02/22 09:38:19;;;;;;;19.17;3.92;;;;;;;5.35;84.51;100940.00;4930426;28;20051;-88
2022/02/22 09:40:46;;;;;;;13.88;3.95;;;;;;;5.55;83.75;100931.69;4929080;28;20054;-88
2022/02/22 09:43:13;;;;;;;18.63;4.38;;;;;;;5.59;82.28;100943.88;4928151;28;20050;-88
2022/02/22 09:45:40;;;;;;;20.00;4.00;;;;;;;5.58;83.83;100942.09;4945667;28;20089;-88
2022/02/22 09:48:07;;;;;;;13.25;3.28;;;;;;;5.68;83.52;100938.81;4949452;28;20057;-90
2022/02/22 09:50:36;;;;;;;16.88;7.05;;;;;;;5.91;81.32;100940.91;4945066;28;20737;-86
2022/02/22 09:53:05;;;;;;;17.42;3.28;;;;;;;6.07;80.53;100947.22;4945711;28;20178;-87
2022/02/22 09:55:32;;;;;;;13.18;3.55;;;;;;;6.24;79.14;100939.66;4946088;28;20061;-87
2022/02/22 09:57:58;;;;;;;18.95;3.42;;;;;;;6.42;76.88;100937.28;4946232;28;20165;-85
2022/02/22 10:00:31;;;;;;;17.13;3.33;;;;;;;6.46;77.08;100930.41;4946063;28;20051;-86
2022/02/22 10:02:59;;;;;;;22.00;3.95;;;;;;;6.38;78.47;100935.50;4944541;28;20043;-89
2022/02/22 10:05:29;;;;;;;16.85;3.33;;;;;;;6.42;77.42;100936.44;4941493;28;20145;-86
2022/02/22 10:07:57;;;;;;;14.20;3.53;;;;;;;6.34;77.96;100938.06;4948208;28;20438;-86
2022/02/22 10:10:40;;;;;;;15.63;4.07;;;;;;;6.28;77.62;100938.84;4960068;28;20059;-86
2022/02/22 10:13:10;;;;;;;15.65;4.78;;;;;;;6.21;77.40;100931.81;4947383;28;20053;-85
2022/02/22 10:15:44;;;;;;;23.17;3.72;;;;;;;6.04;76.58;100940.25;4929088;28;20066;-85
2022/02/22 10:18:13;;;;;;;16.65;3.40;;;;;;;6.00;76.07;100914.19;4949956;28;20823;-84
2022/02/22 10:20:41;;;;;;;18.02;3.92;;;;;;;6.03;76.24;100935.03;4931484;28;20773;-85
2022/02/22 10:23:08;;;;;;;14.13;3.40;;;;;;;6.08;75.75;100930.78;4908655;28;20042;-84
2022/02/22 10:25:36;;;;;;;16.52;2.92;;;;;;;6.12;74.41;100917.84;4945146;28;20149;-86
2022/02/22 10:28:04;;;;;;;13.93;3.75;;;;;;;6.17;74.18;100933.50;4943067;28;20168;-85
2022/02/22 10:30:43;;;;;;;14.88;3.85;;;;;;;6.37;73.72;100928.56;4928692;28;20058;-86
2022/02/22 10:33:25;;;;;;;18.85;3.58;;;;;;;6.44;74.17;100926.91;4945213;28;20120;-88
2022/02/22 10:36:04;;;;;;;13.60;3.47;;;;;;;6.56;73.84;100919.25;4929203;28;20055;-86
2022/02/22 10:38:38;;;;;;;24.25;6.35;;;;;;;6.69;72.88;100929.78;4930667;28;20047;-88
2022/02/22 10:41:14;;;;;;;15.93;3.90;;;;;;;6.60;73.31;100930.59;4964271;28;20891;-86
2022/02/22 10:43:51;;;;;;;11.85;2.63;;;;;;;6.81;73.18;100935.16;4930454;28;20055;-86
2022/02/22 10:46:27;;;;;;;14.60;4.05;;;;;;;6.98;70.78;100937.06;4929935;28;20091;-85
2022/02/22 10:49:12;;;;;;;16.33;3.35;;;;;;;7.18;70.18;100939.88;4943384;28;20058;-88
2022/02/22 10:51:49;;;;;;;12.10;2.75;;;;;;;7.34;67.64;100933.06;4945796;28;20043;-87
2022/02/22 10:54:27;;;;;;;20.85;3.60;;;;;;;7.44;67.06;100941.00;4948285;28;20050;-87
2022/02/22 10:56:55;;;;;;;16.98;3.70;;;;;;;7.50;67.08;100939.28;4922453;28;20583;-88
2022/02/22 10:59:25;;;;;;;10.57;2.90;;;;;;;7.48;66.19;100946.22;4930506;28;20290;-87
2022/02/22 11:01:58;;;;;;;12.55;4.25;;;;;;;7.47;66.86;100947.97;4933251;28;20063;-87
2022/02/22 11:04:25;;;;;;;12.65;3.20;;;;;;;7.54;66.71;100939.31;4944430;28;20057;-87
2022/02/22 11:06:52;;;;;;;16.60;3.55;;;;;;;7.65;66.34;100949.81;4931997;28;21016;-87
2022/02/22 11:09:19;;;;;;;18.00;3.63;;;;;;;7.72;65.88;100943.81;4945306;28;20070;-86
2022/02/22 11:11:54;;;;;;;16.70;3.28;;;;;;;7.57;65.28;100944.56;4931303;28;20952;-86
2022/02/22 11:14:30;;;;;;;14.50;2.92;;;;;;;7.47;66.09;100957.47;4945769;28;20174;-87
2022/02/22 11:17:00;;;;;;;14.38;3.00;;;;;;;7.29;66.12;100946.91;4951583;28;20047;-87
2022/02/22 11:19:47;;;;;;;19.63;4.13;;;;;;;7.12;66.30;100951.09;4951626;28;20059;-88
2022/02/22 11:22:19;;;;;;;18.25;3.92;;;;;;;7.23;66.42;100956.41;4948702;28;21262;-89
2022/02/22 11:24:58;;;;;;;13.68;2.42;;;;;;;7.27;66.10;100953.84;4934858;28;20086;-86